Little Rock Air Force Base
KLRF : now visible

Airfield :











YOU CAN JOIN US ON...

 
LOGIN :

Register | Disclaimer

   EN    FR    IT 

 









Legend :    VFR   Marginal VFR   IFR   Intensive IFR   Very Intensive IFR
Visi :
Ceiling :
>= 8 km
>= 3000ft
5 to 8 km
1000 to 3000 ft
1500m to 5 km
500 to 1000 ft
800 to 1500m
200 to 500 ft
< 800m
< 200 ft
Symbols :   Thunderstorms  Fog  Heavy snow  Heavy precipitations  Wind > 20 kt






- Airport Elevation : 311 ft


KLRF - Little Rock Air Force Base

CURRENT METAR :
  • 072056Z AUTO 16007KT 10SM FEW013 SCT049 SCT130 BKN150 24/21 A2984 RMK AO2 SLP106 60000 T02390214 57025 $

EXPIRED METARs :
  • 072006Z AUTO 18006KT 10SM FEW009 SCT014 OVC042 23/21 A2987 RMK AO2 SLP116 $
  • 072001Z AUTO 17007KT 10SM FEW009 SCT013 SCT019 BKN029 OVC041 23/21 A2987 RMK AO2 CIG 025V041 CIG 021 RWY07 SLP116 $
  • 071943Z AUTO 20006KT 10SM SCT016 BKN022 BKN027 OVC039 23/21 A2988 RMK AO2 CIG 014V022 BKN022 V OVC CIG 020 RWY07 SLP119 $
  • 071938Z AUTO 19006KT 10SM SCT014 OVC022 23/21 A2988 RMK AO2 CIG 014V022 CIG 016 RWY07 SLP119 $
  • 071923Z AUTO 19006KT 10SM SCT010 OVC015 23/21 A2988 RMK AO2 CIG 011V015 OVC V BKN CIG 012 RWY07 SLP119 $
  • 071913Z AUTO 17004KT 10SM BKN011 OVC018 23/21 A2989 RMK AO2 BKN V OVC SLP123 $
  • 071903Z AUTO 19004KT 10SM BKN009 BKN015 OVC019 23/21 A2989 RMK AO2 CIG 009V012 SLP123 $
  • 071856Z AUTO 19005KT 10SM SCT008 BKN012 OVC017 23/21 A2989 RMK AO2 DZB31E42RAB42E46 CIG 011 RWY07 SLP123 P0000 T02250213 $
  • 071846Z AUTO 18005KT 10SM FEW002 BKN009 OVC017 22/21 A2990 RMK AO2 DZB31E42RAB42E46 BKN V OVC SLP126 $
  • 071837Z AUTO 18005KT 10SM -DZ FEW002 BKN009 OVC013 23/21 A2990 RMK AO2 DZB31 CIG 009V012 SLP126 $
  • 071830Z AUTO 20006KT 10SM FEW005 OVC012 23/21 A2990 RMK AO2 SLP126 $
  • 071816Z AUTO 20005KT 10SM OVC014 23/21 A2990 RMK AO2 CIG 013 RWY07 SLP126 $

TAF AMD TAF KLRF
Valid from the 07 at 19:00 until the 08 at 21:00 UTC


071945Z 0719/0821 20004KT 9999 OVC020 QNH2983INS
BECMG 0723/0724 18005KT 9999 OVC100 QNH2980INS
BECMG 0813/0814 26005KT 9999 SKC QNH2974INS TX25/0721Z TN18/0812Z



MET'MAP, your aeronautical weather chart ! - Copyright ORBIFLY December 2007 - Disclaimer

ORBIFLY MET'MAP TEAM :

Programming & Development : Alexandra Zaïnal
Concept & original design : Baudouin d'Aumeries
Assistance for programming : Marc-Olivier Méhu
Technical & hardware support : Manuel Goepfert

Contact : metmap@orbifly.com




SOURCES & CREDITS :

   NOAA       Earth
Advisory